Time;durP1;ratioP1;P1;durP2;ratioP2;P2;SDS_P1;SDS_P2;PMS_P1;PMS_P2;Temp;Humidity;BMP_temperature;BMP_pressure;BME280_temperature;BME280_humidity;BME280_pressure;Samples;Min_cycle;Max_cycle;Signal;HPM_P1;HPM_P2
2023/12/02 00:01:08;;;;;;;;;;;;;;;-2.81;100.00;100279.59;4992974;28;19932;-80
2023/12/02 00:03:36;;;;;;;;;;;;;;;-2.78;100.00;100275.69;4999434;28;19929;-79
2023/12/02 00:06:04;;;;;;;;;;;;;;;-2.75;100.00;100280.63;5006284;28;20687;-79
2023/12/02 00:08:39;;;;;;;;;;;;;;;-2.73;100.00;100278.59;5023202;28;19926;-79
2023/12/02 00:11:07;;;;;;;;;;;;;;;-2.72;100.00;100276.72;5013637;28;19928;-79
2023/12/02 00:13:40;;;;;;;;;;;;;;;-2.76;100.00;100276.34;5026771;28;19929;-79
2023/12/02 00:16:08;;;;;;;;;;;;;;;-2.77;100.00;100272.84;5024103;28;19921;-80
2023/12/02 00:18:42;;;;;;;;;;;;;;;-2.76;100.00;100271.81;5006439;28;19949;-79
2023/12/02 00:21:14;;;;;;;;;;;;;;;-2.78;100.00;100271.19;5008993;28;19928;-79
2023/12/02 00:23:49;;;;;;;;;;;;;;;-2.77;100.00;100275.50;5008423;28;19922;-80
2023/12/02 00:26:22;;;;;;;;;;;;;;;-2.78;100.00;100271.19;5008977;28;20452;-79
2023/12/02 00:28:56;;;;;;;;;;;;;;;-2.77;100.00;100264.84;5009972;28;19937;-79
2023/12/02 00:31:24;;;;;;;;;;;;;;;-2.77;100.00;100262.19;5009154;28;19932;-80
2023/12/02 00:33:57;;;;;;;;;;;;;;;-2.80;100.00;100269.78;5006840;28;19945;-80
2023/12/02 00:36:25;;;;;;;;;;;;;;;-2.80;100.00;100264.44;5003697;28;19936;-79
2023/12/02 00:38:55;;;;;;;;;;;;;;;-2.79;100.00;100258.06;4967574;28;1079208;-79
2023/12/02 00:41:28;;;;;;;;;;;;;;;-2.83;100.00;100264.81;5005673;28;20316;-80
2023/12/02 00:43:56;;;;;;;;;;;;;;;-2.86;100.00;100257.25;5012277;28;19925;-80
2023/12/02 00:46:29;;;;;;;;;;;;;;;-2.89;100.00;100249.66;5007762;28;19921;-79
2023/12/02 00:48:56;;;;;;;;;;;;;;;-2.87;100.00;100258.25;5011364;28;19925;-80
2023/12/02 00:51:24;;;;;;;;;;;;;;;-2.85;100.00;100258.91;5022437;28;19926;-80
2023/12/02 00:53:59;;;;;;;;;;;;;;;-2.88;100.00;100254.78;5021484;28;19949;-79
2023/12/02 00:56:31;;;;;;;;;;;;;;;-2.91;100.00;100249.88;5003766;28;19922;-79
2023/12/02 00:58:59;;;;;;;;;;;;;;;-2.94;100.00;100243.09;5007670;28;19921;-79
2023/12/02 01:01:27;;;;;;;;;;;;;;;-2.91;100.00;100239.22;5004185;28;19943;-80
2023/12/02 01:04:00;;;;;;;;;;;;;;;-2.91;100.00;100255.19;5007105;28;19925;-79
2023/12/02 01:06:33;;;;;;;;;;;;;;;-2.92;100.00;100253.56;5021898;28;19932;-79
2023/12/02 01:09:07;;;;;;;;;;;;;;;-2.91;100.00;100250.69;5007969;28;19921;-79
2023/12/02 01:11:35;;;;;;;;;;;;;;;-2.87;100.00;100252.94;5011136;28;19936;-80
2023/12/02 01:14:03;;;;;;;;;;;;;;;-2.88;100.00;100253.97;5010779;28;20277;-80
2023/12/02 01:16:31;;;;;;;;;;;;;;;-2.91;100.00;100252.53;5009874;28;19926;-79
2023/12/02 01:18:59;;;;;;;;;;;;;;;-2.99;100.00;100252.72;5022930;28;19944;-79
2023/12/02 01:21:27;;;;;;;;;;;;;;;-2.97;100.00;100263.97;5006772;28;20462;-79
2023/12/02 01:24:00;;;;;;;;;;;;;;;-2.99;100.00;100264.19;5004640;28;19925;-80
2023/12/02 01:26:29;;;;;;;;;;;;;;;-2.94;100.00;100264.41;5017980;28;19933;-79
2023/12/02 01:29:02;;;;;;;;;;;;;;;-2.93;100.00;100258.06;5011403;28;19921;-79
2023/12/02 01:31:30;;;;;;;;;;;;;;;-2.89;100.00;100265.66;5012743;28;19925;-79
2023/12/02 01:33:58;;;;;;;;;;;;;;;-2.93;100.00;100270.53;5004330;28;19928;-80
2023/12/02 01:36:26;;;;;;;;;;;;;;;-2.89;100.00;100269.13;5019254;28;19928;-80
2023/12/02 01:38:54;;;;;;;;;;;;;;;-2.90;100.00;100267.47;5010866;28;19936;-79
2023/12/02 01:41:31;;;;;;;;;;;;;;;-2.86;100.00;100267.91;5009056;28;19929;-79
2023/12/02 01:44:04;;;;;;;;;;;;;;;-2.94;100.00;100267.06;5005880;28;19952;-80
2023/12/02 01:46:37;;;;;;;;;;;;;;;-2.94;100.00;100266.22;5009917;28;19941;-79
2023/12/02 01:49:11;;;;;;;;;;;;;;;-2.94;100.00;100260.91;5008506;28;20396;-80
2023/12/02 01:51:44;;;;;;;;;;;;;;;-2.94;100.00;100261.75;5001932;28;21746;-80
2023/12/02 01:54:12;;;;;;;;;;;;;;;-2.93;100.00;100259.88;5010380;28;19922;-79
2023/12/02 01:56:41;;;;;;;;;;;;;;;-2.99;100.00;100258.03;5010940;28;19928;-79
2023/12/02 01:59:26;;;;;;;;;;;;;;;-2.98;100.00;100262.34;5006080;28;19936;-79
2023/12/02 02:02:01;;;;;;;;;;;;;;;-3.03;100.00;100265.59;5003875;28;19929;-79
2023/12/02 02:04:34;;;;;;;;;;;;;;;-3.03;100.00;100268.25;5005814;28;19932;-79
2023/12/02 02:07:07;;;;;;;;;;;;;;;-3.00;100.00;100272.38;5010271;28;19936;-79
2023/12/02 02:09:45;;;;;;;;;;;;;;;-2.99;100.00;100264.19;5001558;28;19932;-80
2023/12/02 02:12:15;;;;;;;;;;;;;;;-3.00;100.00;100265.19;5008365;28;19921;-79
2023/12/02 02:14:43;;;;;;;;;;;;;;;-3.00;100.00;100273.19;5008156;28;19928;-79
2023/12/02 02:17:11;;;;;;;;;;;;;;;-3.00;100.00;100272.38;5009456;28;19925;-79
2023/12/02 02:19:39;;;;;;;;;;;;;;;-3.00;100.00;100267.84;5007645;28;19929;-80
2023/12/02 02:22:13;;;;;;;;;;;;;;;-2.97;100.00;100280.78;5013334;28;19921;-79
2023/12/02 02:24:41;;;;;;;;;;;;;;;-2.96;100.00;100273.63;5004110;28;19921;-79
2023/12/02 02:27:15;;;;;;;;;;;;;;;-2.95;100.00;100270.75;5009004;28;19928;-80
2023/12/02 02:29:48;;;;;;;;;;;;;;;-2.95;100.00;100265.41;5001216;28;19925;-79
2023/12/02 02:32:20;;;;;;;;;;;;;;;-2.95;100.00;100268.09;5007498;28;19932;-79
2023/12/02 02:34:48;;;;;;;;;;;;;;;-2.96;100.00;100277.09;5024113;28;20001;-79
2023/12/02 02:37:23;;;;;;;;;;;;;;;-2.95;100.00;100277.91;5003955;28;19925;-79
2023/12/02 02:39:55;;;;;;;;;;;;;;;-2.92;100.00;100269.53;5002782;28;19931;-79
2023/12/02 02:42:23;;;;;;;;;;;;;;;-2.92;100.00;100273.00;5019373;28;19929;-80
2023/12/02 02:44:56;;;;;;;;;;;;;;;-2.89;100.00;100278.97;5009895;28;20298;-79
2023/12/02 02:47:29;;;;;;;;;;;;;;;-2.90;100.00;100278.13;5018208;28;19926;-80
2023/12/02 02:50:02;;;;;;;;;;;;;;;-2.91;100.00;100271.19;5007157;28;20274;-79
2023/12/02 02:52:36;;;;;;;;;;;;;;;-2.92;100.00;100273.00;5011510;28;19971;-79
2023/12/02 02:55:05;;;;;;;;;;;;;;;-2.87;100.00;100272.41;5006836;28;20554;-79
2023/12/02 02:57:38;;;;;;;;;;;;;;;-2.87;100.00;100268.91;5020612;28;19926;-80
2023/12/02 03:00:09;;;;;;;;;;;;;;;-2.84;100.00;100269.34;5022514;28;19925;-79
2023/12/02 03:02:42;;;;;;;;;;;;;;;-2.81;100.00;100274.25;5007497;28;19926;-80
2023/12/02 03:05:15;;;;;;;;;;;;;;;-2.84;100.00;100277.34;5002624;28;19921;-79
2023/12/02 03:07:49;;;;;;;;;;;;;;;-2.83;100.00;100275.47;5004841;28;19925;-79
2023/12/02 03:10:22;;;;;;;;;;;;;;;-2.83;100.00;100271.00;5001123;28;20466;-79
2023/12/02 03:12:50;;;;;;;;;;;;;;;-2.78;100.00;100279.19;5012893;28;20296;-79
2023/12/02 03:15:23;;;;;;;;;;;;;;;-2.80;100.00;100275.91;5003135;28;19951;-79
2023/12/02 03:17:56;;;;;;;;;;;;;;;-2.82;100.00;100279.78;5008945;28;19937;-79
2023/12/02 03:20:29;;;;;;;;;;;;;;;-2.80;100.00;100275.91;5001949;28;19932;-79
2023/12/02 03:23:03;;;;;;;;;;;;;;;-2.76;100.00;100276.34;5001594;28;19922;-79
2023/12/02 03:25:36;;;;;;;;;;;;;;;-2.75;100.00;100268.13;4998959;28;19922;-79
2023/12/02 03:28:09;;;;;;;;;;;;;;;-2.74;100.00;100272.41;5011509;28;19940;-79
2023/12/02 03:30:37;;;;;;;;;;;;;;;-2.74;100.00;100269.75;5018992;28;19921;-79
2023/12/02 03:33:06;;;;;;;;;;;;;;;-2.75;100.00;100272.63;5009297;28;19936;-79
2023/12/02 03:35:33;;;;;;;;;;;;;;;-2.72;100.00;100276.72;5000539;28;19922;-79
2023/12/02 03:38:08;;;;;;;;;;;;;;;-2.71;100.00;100283.72;5002630;28;19933;-80
2023/12/02 03:40:36;;;;;;;;;;;;;;;-2.70;100.00;100280.03;5006311;28;19940;-80
2023/12/02 03:43:04;;;;;;;;;;;;;;;-2.72;100.00;100268.75;5009205;28;20346;-79
2023/12/02 03:45:37;;;;;;;;;;;;;;;-2.75;100.00;100275.28;5005666;28;19929;-79
2023/12/02 03:48:05;;;;;;;;;;;;;;;-2.77;100.00;100272.03;5012830;28;19921;-79
2023/12/02 03:50:38;;;;;;;;;;;;;;;-2.77;100.00;100269.34;5007171;28;19926;-79
2023/12/02 03:53:12;;;;;;;;;;;;;;;-2.72;100.00;100280.25;5004039;28;20481;-79
2023/12/02 03:55:45;;;;;;;;;;;;;;;-2.72;100.00;100279.41;5006525;28;19922;-79
2023/12/02 03:58:13;;;;;;;;;;;;;;;-2.72;100.00;100280.25;5008929;28;20630;-81
2023/12/02 04:00:41;;;;;;;;;;;;;;;-2.70;100.00;100283.50;5005200;28;20328;-79
2023/12/02 04:03:09;;;;;;;;;;;;;;;-2.73;100.00;100278.59;5012949;28;20294;-78
2023/12/02 04:05:37;;;;;;;;;;;;;;;-2.68;100.00;100278.81;4997044;28;19929;-79
2023/12/02 04:08:05;;;;;;;;;;;;;;;-2.69;100.00;100274.50;5010942;28;19921;-80
2023/12/02 04:10:39;;;;;;;;;;;;;;;-2.70;100.00;100270.19;5005982;28;19929;-79
2023/12/02 04:13:07;;;;;;;;;;;;;;;-2.67;100.00;100274.28;4998061;28;19941;-79
2023/12/02 04:15:40;;;;;;;;;;;;;;;-2.73;100.00;100267.94;5005883;28;19926;-80
2023/12/02 04:18:08;;;;;;;;;;;;;;;-2.73;100.00;100270.59;5023009;28;20406;-79
2023/12/02 04:20:36;;;;;;;;;;;;;;;-2.77;100.00;100272.03;5018802;28;19925;-80
2023/12/02 04:23:09;;;;;;;;;;;;;;;-2.79;100.00;100277.56;5011229;28;20091;-78
2023/12/02 04:25:39;;;;;;;;;;;;;;;-2.79;100.00;100272.22;5010220;28;20408;-78
2023/12/02 04:28:12;;;;;;;;;;;;;;;-2.77;100.00;100275.50;5011340;28;19921;-79
2023/12/02 04:30:40;;;;;;;;;;;;;;;-2.77;100.00;100280.81;5009629;28;20144;-79
2023/12/02 04:33:08;;;;;;;;;;;;;;;-2.74;100.00;100279.59;5018960;28;19928;-79
2023/12/02 04:35:41;;;;;;;;;;;;;;;-2.72;100.00;100279.41;5008809;28;19929;-79
2023/12/02 04:38:14;;;;;;;;;;;;;;;-2.76;100.00;100282.47;5007385;28;19944;-79
2023/12/02 04:40:48;;;;;;;;;;;;;;;-2.76;100.00;100289.66;5004746;28;19934;-79
2023/12/02 04:43:16;;;;;;;;;;;;;;;-2.74;100.00;100295.59;5010119;28;20690;-79
2023/12/02 04:45:49;;;;;;;;;;;;;;;-2.75;100.00;100285.94;5010126;28;19940;-80
2023/12/02 04:48:18;;;;;;;;;;;;;;;-2.71;100.00;100286.38;5006821;28;19930;-79
2023/12/02 04:50:46;;;;;;;;;;;;;;;-2.72;100.00;100292.72;5011140;28;19926;-80
2023/12/02 04:53:18;;;;;;;;;;;;;;;-2.74;100.00;100292.91;5013084;28;19950;-79
2023/12/02 04:55:47;;;;;;;;;;;;;;;-2.70;100.00;100296.00;5011583;28;20900;-79
2023/12/02 04:58:16;;;;;;;;;;;;;;;-2.70;100.00;100293.34;5024164;28;19921;-80
2023/12/02 05:00:49;;;;;;;;;;;;;;;-2.74;100.00;100299.06;5004825;28;20310;-79
2023/12/02 05:03:17;;;;;;;;;;;;;;;-2.69;100.00;100300.28;5011237;28;19933;-79
2023/12/02 05:05:45;;;;;;;;;;;;;;;-2.72;100.00;100285.56;5016570;28;19926;-80
2023/12/02 05:08:18;;;;;;;;;;;;;;;-2.75;100.00;100296.59;5009584;28;19921;-80
2023/12/02 05:10:46;;;;;;;;;;;;;;;-2.68;100.00;100300.13;5013151;28;20550;-80
2023/12/02 05:13:14;;;;;;;;;;;;;;;-2.66;100.00;100303.38;5010531;28;19950;-79
2023/12/02 05:15:43;;;;;;;;;;;;;;;-2.66;100.00;100308.72;5009562;28;19928;-79
2023/12/02 05:18:11;;;;;;;;;;;;;;;-2.66;100.00;100305.25;5022568;28;19925;-79
2023/12/02 05:20:44;;;;;;;;;;;;;;;-2.64;100.00;100308.50;5007161;28;19921;-79
2023/12/02 05:23:12;;;;;;;;;;;;;;;-2.65;100.00;100306.88;5005401;28;19928;-79
2023/12/02 05:25:45;;;;;;;;;;;;;;;-2.70;100.00;100312.00;5016618;28;20793;-79
2023/12/02 05:28:14;;;;;;;;;;;;;;;-2.78;100.00;100316.47;5010663;28;19921;-79
2023/12/02 05:30:43;;;;;;;;;;;;;;;-2.72;100.00;100314.03;5011296;28;20309;-79
2023/12/02 05:33:17;;;;;;;;;;;;;;;-2.81;100.00;100303.56;5008909;28;19921;-80
2023/12/02 05:35:50;;;;;;;;;;;;;;;-2.75;100.00;100316.09;5009112;28;19925;-79
2023/12/02 05:38:23;;;;;;;;;;;;;;;-2.73;100.00;100313.22;5020873;28;19929;-79
2023/12/02 05:40:51;;;;;;;;;;;;;;;-2.71;100.00;100313.81;5021070;28;19932;-79
2023/12/02 05:43:19;;;;;;;;;;;;;;;-2.70;100.00;100323.47;5009598;28;19929;-79
2023/12/02 05:45:53;;;;;;;;;;;;;;;-2.69;100.00;100317.13;5009178;28;19936;-79
2023/12/02 05:48:21;;;;;;;;;;;;;;;-2.69;100.00;100318.94;5007983;28;19932;-79
2023/12/02 05:50:49;;;;;;;;;;;;;;;-2.74;100.00;100320.38;5010766;28;19929;-79
2023/12/02 05:53:23;;;;;;;;;;;;;;;-2.73;100.00;100310.56;5004567;28;19926;-79
2023/12/02 05:55:51;;;;;;;;;;;;;;;-2.71;100.00;100316.47;5010319;28;19925;-79
2023/12/02 05:58:20;;;;;;;;;;;;;;;-2.72;100.00;100317.53;5025242;28;19928;-79
2023/12/02 06:00:48;;;;;;;;;;;;;;;-2.70;100.00;100314.66;5002173;28;20484;-79
2023/12/02 06:03:22;;;;;;;;;;;;;;;-2.71;100.00;100313.81;5007092;28;19929;-81
2023/12/02 06:05:55;;;;;;;;;;;;;;;-2.69;100.00;100318.94;5009681;28;20396;-79
2023/12/02 06:08:28;;;;;;;;;;;;;;;-2.70;100.00;100309.34;5024878;28;19921;-80
2023/12/02 06:11:02;;;;;;;;;;;;;;;-2.72;100.00;100317.53;5019431;28;19921;-79
2023/12/02 06:13:30;;;;;;;;;;;;;;;-2.71;100.00;100321.81;5008911;28;19926;-79
2023/12/02 06:15:58;;;;;;;;;;;;;;;-2.75;100.00;100331.22;5015300;28;19925;-79
2023/12/02 06:18:27;;;;;;;;;;;;;;;-2.75;100.00;100324.06;5007911;28;20278;-80
2023/12/02 06:20:57;;;;;;;;;;;;;;;-2.74;100.00;100327.53;5011343;28;19921;-80
2023/12/02 06:23:24;;;;;;;;;;;;;;;-2.79;100.00;100325.50;5004320;28;19929;-80
2023/12/02 06:25:53;;;;;;;;;;;;;;;-2.73;100.00;100323.88;5007491;28;19925;-79
2023/12/02 06:28:21;;;;;;;;;;;;;;;-2.72;100.00;100330.00;5023384;28;19936;-79
2023/12/02 06:30:54;;;;;;;;;;;;;;;-2.72;100.00;100332.66;5007615;28;19929;-80
2023/12/02 06:33:22;;;;;;;;;;;;;;;-2.70;100.00;100335.97;5008149;28;19925;-80
2023/12/02 06:35:56;;;;;;;;;;;;;;;-2.76;100.00;100330.41;5006869;28;19929;-79
2023/12/02 06:38:24;;;;;;;;;;;;;;;-2.78;100.00;100334.28;5006027;28;19926;-78
2023/12/02 06:40:53;;;;;;;;;;;;;;;-2.79;100.00;100340.63;5024306;28;19925;-79
2023/12/02 06:43:20;;;;;;;;;;;;;;;-2.85;100.00;100347.59;5023670;28;19927;-79
2023/12/02 06:45:48;;;;;;;;;;;;;;;-2.78;100.00;100342.28;5018417;28;19932;-79
2023/12/02 06:48:16;;;;;;;;;;;;;;;-2.79;100.00;100336.16;5007052;28;19968;-78
2023/12/02 06:50:44;;;;;;;;;;;;;;;-2.79;100.00;100340.63;5009672;28;20321;-78
2023/12/02 06:53:18;;;;;;;;;;;;;;;-2.79;100.00;100344.13;5007552;28;19926;-79
2023/12/02 06:55:47;;;;;;;;;;;;;;;-2.77;100.00;100355.41;5010184;28;19929;-79
2023/12/02 06:58:15;;;;;;;;;;;;;;;-2.78;100.00;100353.75;5005046;28;19926;-78
2023/12/02 07:00:43;;;;;;;;;;;;;;;-2.77;100.00;100365.25;5023691;28;19926;-79
2023/12/02 07:03:11;;;;;;;;;;;;;;;-2.85;100.00;100362.75;5007223;28;19922;-79
2023/12/02 07:05:44;;;;;;;;;;;;;;;-2.83;100.00;100366.88;5014182;28;19928;-79
2023/12/02 07:08:12;;;;;;;;;;;;;;;-2.83;100.00;100369.53;5024352;28;19921;-79
2023/12/02 07:10:41;;;;;;;;;;;;;;;-2.81;100.00;100369.31;5008621;28;19941;-79
2023/12/02 07:13:14;;;;;;;;;;;;;;;-2.81;100.00;100379.97;5020774;28;19922;-78
2023/12/02 07:15:42;;;;;;;;;;;;;;;-2.78;100.00;100377.72;5010200;28;20385;-79
2023/12/02 07:18:10;;;;;;;;;;;;;;;-2.75;100.00;100382.66;5009826;28;19922;-78
2023/12/02 07:20:38;;;;;;;;;;;;;;;-2.72;100.00;100381.47;5020965;28;19925;-79
2023/12/02 07:23:11;;;;;;;;;;;;;;;-2.71;100.00;100380.41;5017974;28;19928;-78
2023/12/02 07:25:40;;;;;;;;;;;;;;;-2.73;100.00;100395.78;5003132;28;19926;-79
2023/12/02 07:28:08;;;;;;;;;;;;;;;-2.69;100.00;100399.69;5007977;28;19925;-78
2023/12/02 07:30:36;;;;;;;;;;;;;;;-2.65;100.00;100395.63;5012168;28;19921;-79
2023/12/02 07:33:04;;;;;;;;;;;;;;;-2.59;100.00;100399.31;5011994;28;19929;-79
2023/12/02 07:35:32;;;;;;;;;;;;;;;-2.49;100.00;100405.06;5019773;28;20260;-78
2023/12/02 07:38:00;;;;;;;;;;;;;;;-2.46;100.00;100401.19;5009601;28;19928;-81
2023/12/02 07:40:28;;;;;;;;;;;;;;;-2.42;100.00;100405.94;5003214;28;20816;-79
2023/12/02 07:43:02;;;;;;;;;;;;;;;-2.41;100.00;100404.91;5006900;28;19936;-78
2023/12/02 07:45:30;;;;;;;;;;;;;;;-2.51;100.00;100404.47;5009405;28;19921;-79
2023/12/02 07:47:58;;;;;;;;;;;;;;;-2.42;100.00;100413.94;5006022;28;19921;-78
2023/12/02 07:50:26;;;;;;;;;;;;;;;-2.42;100.00;100413.94;5005961;28;19933;-78
2023/12/02 07:52:54;;;;;;;;;;;;;;;-2.38;100.00;100410.88;5008453;28;19925;-79
2023/12/02 07:55:24;;;;;;;;;;;;;;;-2.46;100.00;100406.53;5008293;28;19925;-79
2023/12/02 07:57:57;;;;;;;;;;;;;;;-2.49;100.00;100413.06;5013900;28;19925;-79
2023/12/02 08:00:26;;;;;;;;;;;;;;;-2.41;100.00;100420.88;5009254;28;19932;-80
2023/12/02 08:02:54;;;;;;;;;;;;;;;-2.37;100.00;100417.84;5008933;28;19925;-80
2023/12/02 08:05:22;;;;;;;;;;;;;;;-2.33;100.00;100419.09;5016027;28;19921;-79
2023/12/02 08:07:51;;;;;;;;;;;;;;;-2.31;100.00;100422.34;5008882;28;19944;-80
2023/12/02 08:10:24;;;;;;;;;;;;;;;-2.25;100.00;100418.88;5015147;28;19928;-79
2023/12/02 08:12:51;;;;;;;;;;;;;;;-2.26;100.00;100422.59;5015007;28;19936;-80
2023/12/02 08:15:26;;;;;;;;;;;;;;;-2.24;100.00;100424.03;5007399;28;19921;-79
2023/12/02 08:17:54;;;;;;;;;;;;;;;-2.19;100.00;100427.94;5012657;28;20329;-80
2023/12/02 08:20:22;;;;;;;;;;;;;;;-2.20;100.00;100428.94;5010058;28;19928;-79
2023/12/02 08:22:50;;;;;;;;;;;;;;;-2.20;100.00;100435.09;5008221;28;20857;-79
2023/12/02 08:25:18;;;;;;;;;;;;;;;-2.15;100.00;100437.16;5026950;28;19921;-80
2023/12/02 08:27:51;;;;;;;;;;;;;;;-2.20;100.00;100436.94;5007108;28;19933;-81
2023/12/02 08:30:19;;;;;;;;;;;;;;;-2.16;100.00;100447.00;5008884;28;19929;-82
2023/12/02 08:32:49;;;;;;;;;;;;;;;-2.13;100.00;100445.78;5010964;28;19928;-80
2023/12/02 08:35:22;;;;;;;;;;;;;;;-2.14;100.00;100450.28;5023621;28;19922;-84
2023/12/02 08:37:55;;;;;;;;;;;;;;;-2.16;100.00;100462.19;5013203;28;19928;-85
2023/12/02 08:40:28;;;;;;;;;;;;;;;-2.12;100.00;100458.91;5010726;28;19922;-80
2023/12/02 08:43:01;;;;;;;;;;;;;;;-2.04;100.00;100463.25;5027277;28;19921;-81
2023/12/02 08:45:29;;;;;;;;;;;;;;;-2.10;100.00;100464.88;5011699;28;19926;-82
2023/12/02 08:48:03;;;;;;;3.60;2.75;;;;;;;-2.02;100.00;100473.69;5008390;28;19922;-81
2023/12/02 08:50:37;;;;;;;7.03;4.13;;;;;;;-1.98;100.00;100465.09;5009762;28;20065;-81
2023/12/02 08:53:10;;;;;;;9.15;4.97;;;;;;;-1.98;100.00;100475.75;5024026;28;20865;-81
2023/12/02 08:55:38;;;;;;;13.98;7.90;;;;;;;-2.03;100.00;100474.72;5006245;28;20490;-81
2023/12/02 08:58:06;;;;;;;13.30;5.95;;;;;;;-2.05;100.00;100472.25;5008256;28;20058;-81
2023/12/02 09:00:39;;;;;;;12.15;7.45;;;;;;;-2.08;100.00;100484.13;5012418;28;20038;-82
2023/12/02 09:03:14;;;;;;;11.02;6.20;;;;;;;-1.95;100.00;100486.00;5010112;28;20066;-81
2023/12/02 09:05:47;;;;;;;10.38;4.78;;;;;;;-1.89;100.00;100490.56;5007805;28;20042;-81
2023/12/02 09:08:21;;;;;;;9.93;4.53;;;;;;;-1.91;100.00;100494.44;5005752;28;20057;-81
2023/12/02 09:10:54;;;;;;;9.68;5.85;;;;;;;-1.80;100.00;100487.69;5005184;28;20049;-81
2023/12/02 09:13:46;;;;;;;12.25;6.53;;;;;;;-1.86;100.00;100496.50;5025979;28;20056;-80
2023/12/02 09:16:21;;;;;;;7.15;4.50;;;;;;;-1.89;100.00;100493.22;5013565;28;20057;-81
2023/12/02 09:18:56;;;;;;;9.82;5.28;;;;;;;-2.03;100.00;100496.06;5019511;28;20049;-81
2023/12/02 09:21:42;;;;;;;11.70;6.03;;;;;;;-1.93;100.00;100502.66;5028774;28;20050;-83
2023/12/02 09:24:35;;;;;;;11.30;5.47;;;;;;;-1.82;100.00;100503.06;5002967;28;20046;-83
2023/12/02 09:27:09;;;;;;;10.52;6.35;;;;;;;-1.88;100.00;100513.53;5014966;28;20042;-83
2023/12/02 09:29:42;;;;;;;15.10;5.07;;;;;;;-1.80;100.00;100501.84;5008129;28;20502;-83
2023/12/02 09:32:45;;;;;;;9.10;5.10;;;;;;;-1.83;100.00;100506.78;5009732;28;20049;-82
2023/12/02 09:35:19;;;;;;;8.15;5.45;;;;;;;-1.76;100.00;100504.94;5008667;28;20498;-82
2023/12/02 09:37:57;;;;;;;11.13;5.30;;;;;;;-1.67;100.00;100508.22;5001486;28;20053;-83
2023/12/02 09:41:04;;;;;;;10.13;5.30;;;;;;;-1.61;100.00;100502.91;5012077;28;20049;-82
2023/12/02 09:43:34;;;;;;;9.00;4.75;;;;;;;-1.57;100.00;100498.00;5000944;28;20061;-82
2023/12/02 09:46:23;;;;;;;8.48;4.57;;;;;;;-1.63;100.00;100496.13;5004535;28;20033;-82
2023/12/02 09:49:22;;;;;;;9.40;4.63;;;;;;;-1.68;100.00;100506.59;5018437;28;20061;-82
2023/12/02 09:52:15;;;;;;;8.05;4.35;;;;;;;-1.61;100.00;100502.91;5004592;28;20056;-82
2023/12/02 09:54:58;;;;;;;10.23;4.88;;;;;;;-1.81;100.00;100504.72;5006462;28;20060;-82
2023/12/02 09:57:38;;;;;;;9.98;4.63;;;;;;;-1.74;100.00;100506.38;5008093;28;20058;-81
2023/12/02 10:00:12;;;;;;;13.23;5.68;;;;;;;-1.64;100.00;100506.00;5007188;28;20046;-81
2023/12/02 10:03:09;;;;;;;7.63;4.05;;;;;;;-1.57;100.00;100506.00;5005663;28;20060;-82
2023/12/02 10:05:49;;;;;;;;;;;;;;;-1.46;100.00;100502.72;5010825;28;20054;-81
2023/12/02 10:08:32;;;;;;;9.13;4.05;;;;;;;-1.50;100.00;100501.47;5012380;28;19936;-81
2023/12/02 10:11:08;;;;;;;9.30;4.90;;;;;;;-1.47;100.00;100492.25;5009775;28;20049;-82
2023/12/02 10:13:45;;;;;;;10.48;5.25;;;;;;;-1.43;100.00;100494.28;5008802;28;20395;-81
2023/12/02 10:16:15;;;;;;;7.03;4.57;;;;;;;-1.37;100.00;100488.16;5009414;28;20733;-82
2023/12/02 10:18:53;;;;;;;11.30;5.57;;;;;;;-1.35;100.00;100493.28;5007813;28;20065;-82
2023/12/02 10:21:22;;;;;;;13.13;6.20;;;;;;;-1.37;100.00;100485.47;5010974;28;20097;-81
2023/12/02 10:24:02;;;;;;;18.80;7.03;;;;;;;-1.27;100.00;100489.56;5009255;28;20047;-82
2023/12/02 10:26:37;;;;;;;10.38;6.45;;;;;;;-1.21;100.00;100494.09;5009793;28;20037;-84
2023/12/02 10:29:17;;;;;;;10.05;5.55;;;;;;;-1.25;100.00;100490.19;5006115;28;20034;-82
2023/12/02 10:32:04;;;;;;;8.45;4.82;;;;;;;-1.13;100.00;100488.53;5027287;28;20057;-81
2023/12/02 10:34:43;;;;;;;7.60;4.40;;;;;;;-1.16;100.00;100488.13;5008184;28;20426;-82
2023/12/02 10:37:16;;;;;;;10.25;4.93;;;;;;;-1.12;100.00;100484.00;5009787;28;20061;-82
2023/12/02 10:39:53;;;;;;;13.35;5.53;;;;;;;-1.03;100.00;100488.91;5009387;28;20054;-81
2023/12/02 10:42:30;;;;;;;11.27;6.13;;;;;;;-1.10;100.00;100489.97;5013485;28;20045;-82
2023/12/02 10:45:04;;;;;;;11.43;6.10;;;;;;;-0.97;100.00;100492.59;5024769;28;20505;-85
2023/12/02 10:47:38;;;;;;;7.85;4.85;;;;;;;-0.98;100.00;100491.00;4969044;28;20054;-84
2023/12/02 10:50:13;;;;;;;7.38;4.60;;;;;;;-1.01;100.00;100493.25;5002265;28;20053;-84
2023/12/02 10:52:52;;;;;;;12.63;5.78;;;;;;;-0.98;100.00;100490.16;4997644;28;20513;-83
2023/12/02 10:55:23;;;;;;;10.00;5.65;;;;;;;-0.94;100.00;100496.72;5003353;28;20125;-83
2023/12/02 10:57:59;;;;;;;12.35;6.97;;;;;;;-0.99;100.00;100492.00;4996452;28;20052;-84
2023/12/02 11:00:35;;;;;;;11.55;6.60;;;;;;;-0.94;100.00;100497.56;5002495;28;20080;-84
2023/12/02 11:03:19;;;;;;;11.35;6.10;;;;;;;-1.06;100.00;100489.34;4997601;28;20062;-81
2023/12/02 11:06:01;;;;;;;9.98;5.88;;;;;;;-1.07;100.00;100493.03;4994391;28;20053;-85
2023/12/02 11:08:48;;;;;;;10.38;5.35;;;;;;;-1.00;100.00;100495.69;5000079;28;20061;-83
2023/12/02 11:11:33;;;;;;;;;;;;;;;-1.07;100.00;100495.72;5001064;28;20061;-83
2023/12/02 11:14:02;;;;;;;9.13;4.55;;;;;;;-1.13;100.00;100498.38;4997619;28;21790;-83
2023/12/02 11:16:43;;;;;;;10.48;5.90;;;;;;;-1.04;100.00;100494.47;4994587;28;21574;-82
2023/12/02 11:19:25;;;;;;;14.38;6.43;;;;;;;-1.12;100.00;100492.03;4994635;28;20077;-83
2023/12/02 11:22:11;;;;;;;11.10;5.75;;;;;;;-1.09;100.00;100497.78;5002682;28;20064;-83
2023/12/02 11:24:58;;;;;;;7.95;5.35;;;;;;;-1.17;100.00;100500.66;5013961;28;20053;-83
2023/12/02 11:27:42;;;;;;;8.45;4.68;;;;;;;-1.08;100.00;100498.59;4995695;28;20057;-83
2023/12/02 11:30:29;;;;;;;9.75;4.97;;;;;;;-1.07;100.00;100494.91;5000666;28;20057;-83
2023/12/02 11:33:14;;;;;;;7.63;4.03;;;;;;;-1.16;100.00;100496.13;5001427;28;20053;-82
2023/12/02 11:35:58;;;;;;;6.22;3.90;;;;;;;-1.09;100.00;100494.25;5006276;28;20711;-83
2023/12/02 11:38:30;;;;;;;12.23;5.55;;;;;;;-1.18;100.00;100499.00;4994886;28;20046;-83
2023/12/02 11:41:18;;;;;;;9.25;5.13;;;;;;;-1.15;100.00;100495.91;5001512;28;20053;-83
2023/12/02 11:44:05;;;;;;;11.27;5.85;;;;;;;-1.18;100.00;100496.34;4999479;28;20058;-83
2023/12/02 11:46:53;;;;;;;9.68;4.80;;;;;;;-1.16;100.00;100496.13;4978868;28;20069;-83
2023/12/02 11:49:36;;;;;;;7.20;4.00;;;;;;;-1.23;100.00;100483.63;4995846;28;20037;-83
2023/12/02 11:52:17;;;;;;;8.00;4.60;;;;;;;-1.07;100.00;100489.56;5004078;28;20050;-84
2023/12/02 11:55:06;;;;;;;5.95;2.88;;;;;;;-0.92;100.00;100500.84;5004653;28;20068;-82
2023/12/02 11:57:51;;;;;;;8.20;4.63;;;;;;;-0.92;100.00;100500.84;5006781;28;20062;-84
2023/12/02 12:00:37;;;;;;;8.40;3.72;;;;;;;-1.06;100.00;100499.22;5003352;28;20064;-83
2023/12/02 12:03:33;;;;;;;8.47;4.23;;;;;;;-1.10;100.00;100506.00;4999758;28;20633;-84
2023/12/02 12:06:17;;;;;;;7.50;4.70;;;;;;;-1.22;100.00;100503.13;5005161;28;20563;-83
2023/12/02 12:08:59;;;;;;;7.60;4.13;;;;;;;-1.15;100.00;100508.47;5006402;28;20989;-83
2023/12/02 12:11:33;;;;;;;;;;;;;;;-1.25;100.00;100508.88;4998956;28;20087;-84
2023/12/02 12:14:05;;;;;;;6.20;3.00;;;;;;;-1.08;100.00;100503.94;5001123;28;19935;-83
2023/12/02 12:16:35;;;;;;;6.60;4.03;;;;;;;-1.16;100.00;100510.31;4998333;28;21293;-82
2023/12/02 12:19:03;;;;;;;5.28;3.30;;;;;;;-1.25;100.00;100506.22;4998886;28;20065;-83
2023/12/02 12:21:36;;;;;;;6.80;3.78;;;;;;;-1.16;100.00;100513.00;5003540;28;20080;-82
2023/12/02 12:24:09;;;;;;;8.32;3.55;;;;;;;-1.23;100.00;100513.00;5006455;28;20061;-84
2023/12/02 12:26:44;;;;;;;10.13;3.97;;;;;;;-1.11;100.00;100517.72;4998658;28;20073;-85
2023/12/02 12:29:18;;;;;;;5.50;3.65;;;;;;;-1.30;100.00;100514.81;4999518;28;20053;-84
2023/12/02 12:31:56;;;;;;;4.95;2.90;;;;;;;-1.42;100.00;100517.28;5000867;28;20058;-83
2023/12/02 12:34:30;;;;;;;2.40;1.60;;;;;;;-1.38;100.00;100520.38;4999789;28;20058;-83